sensor_id;sensor_type;location;lat;lon;timestamp;P1;durP1;ratioP1;P2;durP2;ratioP2
11481;SDS011;5797;51.662;6.748;2022-09-29T00:01:23;7.53;;;5.03;;
11481;SDS011;5797;51.662;6.748;2022-09-29T00:04:10;6.50;;;4.87;;
11481;SDS011;5797;51.662;6.748;2022-09-29T00:06:59;6.27;;;5.07;;
11481;SDS011;5797;51.662;6.748;2022-09-29T00:09:46;9.23;;;5.70;;
11481;SDS011;5797;51.662;6.748;2022-09-29T00:12:33;9.10;;;5.53;;
11481;SDS011;5797;51.662;6.748;2022-09-29T00:15:20;7.77;;;5.47;;
11481;SDS011;5797;51.662;6.748;2022-09-29T00:18:07;11.67;;;6.20;;
11481;SDS011;5797;51.662;6.748;2022-09-29T00:20:58;9.60;;;5.97;;
11481;SDS011;5797;51.662;6.748;2022-09-29T00:23:49;9.07;;;5.80;;
11481;SDS011;5797;51.662;6.748;2022-09-29T00:26:36;8.27;;;5.50;;
11481;SDS011;5797;51.662;6.748;2022-09-29T00:29:23;7.70;;;5.87;;
11481;SDS011;5797;51.662;6.748;2022-09-29T00:32:10;9.33;;;5.30;;
11481;SDS011;5797;51.662;6.748;2022-09-29T00:34:57;8.60;;;6.17;;
11481;SDS011;5797;51.662;6.748;2022-09-29T00:37:45;14.37;;;6.13;;
11481;SDS011;5797;51.662;6.748;2022-09-29T00:40:33;10.30;;;6.20;;
11481;SDS011;5797;51.662;6.748;2022-09-29T00:43:21;11.17;;;6.10;;
11481;SDS011;5797;51.662;6.748;2022-09-29T00:46:09;8.03;;;5.97;;
11481;SDS011;5797;51.662;6.748;2022-09-29T00:48:58;10.80;;;5.87;;
11481;SDS011;5797;51.662;6.748;2022-09-29T00:51:50;10.17;;;6.00;;
11481;SDS011;5797;51.662;6.748;2022-09-29T00:54:41;12.60;;;6.27;;
11481;SDS011;5797;51.662;6.748;2022-09-29T00:57:33;12.83;;;6.13;;
11481;SDS011;5797;51.662;6.748;2022-09-29T01:00:25;11.73;;;5.40;;
11481;SDS011;5797;51.662;6.748;2022-09-29T01:03:14;8.90;;;5.20;;
11481;SDS011;5797;51.662;6.748;2022-09-29T01:06:05;8.47;;;5.73;;
11481;SDS011;5797;51.662;6.748;2022-09-29T01:08:58;12.00;;;6.57;;
11481;SDS011;5797;51.662;6.748;2022-09-29T01:11:46;9.47;;;5.83;;
11481;SDS011;5797;51.662;6.748;2022-09-29T01:14:38;12.67;;;5.97;;
11481;SDS011;5797;51.662;6.748;2022-09-29T01:17:25;12.43;;;5.50;;
11481;SDS011;5797;51.662;6.748;2022-09-29T01:20:13;5.77;;;4.97;;
11481;SDS011;5797;51.662;6.748;2022-09-29T01:23:14;8.63;;;5.53;;
11481;SDS011;5797;51.662;6.748;2022-09-29T01:26:27;6.90;;;5.03;;
11481;SDS011;5797;51.662;6.748;2022-09-29T01:29:50;8.37;;;5.73;;
11481;SDS011;5797;51.662;6.748;2022-09-29T01:32:46;8.33;;;5.00;;
11481;SDS011;5797;51.662;6.748;2022-09-29T01:35:44;7.23;;;5.10;;
11481;SDS011;5797;51.662;6.748;2022-09-29T01:38:38;9.57;;;5.60;;
11481;SDS011;5797;51.662;6.748;2022-09-29T01:41:32;7.97;;;5.47;;
11481;SDS011;5797;51.662;6.748;2022-09-29T01:44:24;8.80;;;5.17;;
11481;SDS011;5797;51.662;6.748;2022-09-29T01:47:13;9.00;;;5.80;;
11481;SDS011;5797;51.662;6.748;2022-09-29T01:50:06;9.67;;;5.87;;
11481;SDS011;5797;51.662;6.748;2022-09-29T01:52:58;15.07;;;6.07;;
11481;SDS011;5797;51.662;6.748;2022-09-29T01:55:48;9.87;;;6.43;;
11481;SDS011;5797;51.662;6.748;2022-09-29T01:58:40;13.20;;;6.23;;
11481;SDS011;5797;51.662;6.748;2022-09-29T02:01:32;8.80;;;6.17;;
11481;SDS011;5797;51.662;6.748;2022-09-29T02:04:22;10.03;;;5.90;;
11481;SDS011;5797;51.662;6.748;2022-09-29T02:07:14;10.03;;;5.57;;
11481;SDS011;5797;51.662;6.748;2022-09-29T02:10:05;11.70;;;7.27;;
11481;SDS011;5797;51.662;6.748;2022-09-29T02:12:56;11.97;;;6.50;;
11481;SDS011;5797;51.662;6.748;2022-09-29T02:15:47;10.80;;;6.77;;
11481;SDS011;5797;51.662;6.748;2022-09-29T02:18:39;11.90;;;6.13;;
11481;SDS011;5797;51.662;6.748;2022-09-29T02:21:30;12.20;;;6.13;;
11481;SDS011;5797;51.662;6.748;2022-09-29T02:24:19;9.20;;;6.33;;
11481;SDS011;5797;51.662;6.748;2022-09-29T02:27:08;11.30;;;6.37;;
11481;SDS011;5797;51.662;6.748;2022-09-29T02:29:55;10.13;;;6.30;;
11481;SDS011;5797;51.662;6.748;2022-09-29T02:32:45;9.63;;;5.90;;
11481;SDS011;5797;51.662;6.748;2022-09-29T02:35:35;10.00;;;5.60;;
11481;SDS011;5797;51.662;6.748;2022-09-29T02:38:30;9.73;;;6.30;;
11481;SDS011;5797;51.662;6.748;2022-09-29T02:41:34;9.40;;;5.60;;
11481;SDS011;5797;51.662;6.748;2022-09-29T02:44:32;10.23;;;6.27;;
11481;SDS011;5797;51.662;6.748;2022-09-29T02:47:32;10.03;;;5.43;;
11481;SDS011;5797;51.662;6.748;2022-09-29T02:50:31;8.00;;;5.80;;
11481;SDS011;5797;51.662;6.748;2022-09-29T02:53:31;8.23;;;5.50;;
11481;SDS011;5797;51.662;6.748;2022-09-29T02:56:32;8.30;;;5.47;;
11481;SDS011;5797;51.662;6.748;2022-09-29T02:59:25;8.97;;;5.63;;
11481;SDS011;5797;51.662;6.748;2022-09-29T03:02:15;8.93;;;5.73;;
11481;SDS011;5797;51.662;6.748;2022-09-29T03:08:17;9.17;;;5.53;;
11481;SDS011;5797;51.662;6.748;2022-09-29T03:11:09;9.83;;;5.70;;
11481;SDS011;5797;51.662;6.748;2022-09-29T03:13:59;9.00;;;5.87;;
11481;SDS011;5797;51.662;6.748;2022-09-29T03:16:46;10.40;;;6.33;;
11481;SDS011;5797;51.662;6.748;2022-09-29T03:19:36;12.37;;;6.37;;
11481;SDS011;5797;51.662;6.748;2022-09-29T03:22:23;14.10;;;6.27;;
11481;SDS011;5797;51.662;6.748;2022-09-29T03:25:19;8.80;;;6.10;;
11481;SDS011;5797;51.662;6.748;2022-09-29T03:28:07;8.80;;;6.43;;
11481;SDS011;5797;51.662;6.748;2022-09-29T03:30:55;10.67;;;6.47;;
11481;SDS011;5797;51.662;6.748;2022-09-29T03:33:50;11.77;;;6.40;;
11481;SDS011;5797;51.662;6.748;2022-09-29T03:36:37;7.50;;;6.13;;
11481;SDS011;5797;51.662;6.748;2022-09-29T03:39:26;8.87;;;5.80;;
11481;SDS011;5797;51.662;6.748;2022-09-29T03:42:13;11.33;;;6.03;;
11481;SDS011;5797;51.662;6.748;2022-09-29T03:45:00;10.77;;;6.67;;
11481;SDS011;5797;51.662;6.748;2022-09-29T03:47:49;8.60;;;5.57;;
11481;SDS011;5797;51.662;6.748;2022-09-29T03:50:36;10.43;;;5.80;;
11481;SDS011;5797;51.662;6.748;2022-09-29T03:53:23;10.83;;;6.17;;
11481;SDS011;5797;51.662;6.748;2022-09-29T03:56:10;9.80;;;6.10;;
11481;SDS011;5797;51.662;6.748;2022-09-29T03:58:57;10.20;;;6.47;;
11481;SDS011;5797;51.662;6.748;2022-09-29T04:01:44;10.30;;;6.33;;
11481;SDS011;5797;51.662;6.748;2022-09-29T04:04:32;9.23;;;6.07;;
11481;SDS011;5797;51.662;6.748;2022-09-29T04:07:19;7.33;;;5.27;;
11481;SDS011;5797;51.662;6.748;2022-09-29T04:10:07;8.83;;;6.10;;
11481;SDS011;5797;51.662;6.748;2022-09-29T04:12:54;9.33;;;6.63;;
11481;SDS011;5797;51.662;6.748;2022-09-29T04:15:41;12.47;;;6.10;;
11481;SDS011;5797;51.662;6.748;2022-09-29T04:18:29;16.87;;;5.60;;
11481;SDS011;5797;51.662;6.748;2022-09-29T04:21:18;9.03;;;5.63;;
11481;SDS011;5797;51.662;6.748;2022-09-29T04:24:05;10.70;;;5.90;;
11481;SDS011;5797;51.662;6.748;2022-09-29T04:26:52;10.53;;;5.10;;
11481;SDS011;5797;51.662;6.748;2022-09-29T04:29:40;9.57;;;5.20;;
11481;SDS011;5797;51.662;6.748;2022-09-29T04:32:27;8.67;;;5.37;;
11481;SDS011;5797;51.662;6.748;2022-09-29T04:35:15;14.80;;;6.10;;
11481;SDS011;5797;51.662;6.748;2022-09-29T04:38:04;11.33;;;6.13;;
11481;SDS011;5797;51.662;6.748;2022-09-29T04:40:52;9.63;;;5.90;;
11481;SDS011;5797;51.662;6.748;2022-09-29T04:43:40;13.00;;;5.97;;
11481;SDS011;5797;51.662;6.748;2022-09-29T04:46:27;11.17;;;5.73;;
11481;SDS011;5797;51.662;6.748;2022-09-29T04:49:14;8.20;;;5.57;;
11481;SDS011;5797;51.662;6.748;2022-09-29T04:52:01;9.40;;;5.53;;
11481;SDS011;5797;51.662;6.748;2022-09-29T04:54:49;11.73;;;5.73;;
11481;SDS011;5797;51.662;6.748;2022-09-29T04:57:40;10.60;;;5.13;;
11481;SDS011;5797;51.662;6.748;2022-09-29T05:00:27;7.83;;;4.97;;
11481;SDS011;5797;51.662;6.748;2022-09-29T05:03:16;10.70;;;5.40;;
11481;SDS011;5797;51.662;6.748;2022-09-29T05:06:03;11.07;;;6.07;;
11481;SDS011;5797;51.662;6.748;2022-09-29T05:08:51;8.20;;;5.80;;
11481;SDS011;5797;51.662;6.748;2022-09-29T05:11:39;9.23;;;5.93;;
11481;SDS011;5797;51.662;6.748;2022-09-29T05:14:27;11.17;;;6.37;;
11481;SDS011;5797;51.662;6.748;2022-09-29T05:17:14;11.23;;;6.77;;
11481;SDS011;5797;51.662;6.748;2022-09-29T05:20:02;11.37;;;7.33;;
11481;SDS011;5797;51.662;6.748;2022-09-29T05:22:49;11.53;;;6.87;;
11481;SDS011;5797;51.662;6.748;2022-09-29T05:25:36;12.60;;;6.30;;
11481;SDS011;5797;51.662;6.748;2022-09-29T05:28:26;10.43;;;6.10;;
11481;SDS011;5797;51.662;6.748;2022-09-29T05:31:13;9.60;;;6.20;;
11481;SDS011;5797;51.662;6.748;2022-09-29T05:34:02;10.73;;;6.53;;
11481;SDS011;5797;51.662;6.748;2022-09-29T05:36:49;16.43;;;7.07;;
11481;SDS011;5797;51.662;6.748;2022-09-29T05:39:36;9.73;;;6.37;;
11481;SDS011;5797;51.662;6.748;2022-09-29T05:42:24;13.37;;;6.53;;
11481;SDS011;5797;51.662;6.748;2022-09-29T05:45:13;11.03;;;6.43;;
11481;SDS011;5797;51.662;6.748;2022-09-29T05:48:00;10.70;;;6.67;;
11481;SDS011;5797;51.662;6.748;2022-09-29T05:50:47;12.87;;;5.77;;
11481;SDS011;5797;51.662;6.748;2022-09-29T05:53:35;11.30;;;6.70;;
11481;SDS011;5797;51.662;6.748;2022-09-29T05:56:23;15.40;;;6.20;;
11481;SDS011;5797;51.662;6.748;2022-09-29T05:59:11;11.97;;;6.37;;
11481;SDS011;5797;51.662;6.748;2022-09-29T06:02:01;13.07;;;6.50;;
11481;SDS011;5797;51.662;6.748;2022-09-29T06:04:48;11.17;;;6.20;;
11481;SDS011;5797;51.662;6.748;2022-09-29T06:07:36;14.43;;;6.37;;
11481;SDS011;5797;51.662;6.748;2022-09-29T06:10:23;16.40;;;7.53;;
11481;SDS011;5797;51.662;6.748;2022-09-29T06:13:10;14.20;;;6.93;;
11481;SDS011;5797;51.662;6.748;2022-09-29T06:15:57;10.93;;;6.40;;
11481;SDS011;5797;51.662;6.748;2022-09-29T06:18:46;15.67;;;7.23;;
11481;SDS011;5797;51.662;6.748;2022-09-29T06:21:34;15.50;;;7.27;;
11481;SDS011;5797;51.662;6.748;2022-09-29T06:24:22;18.63;;;8.30;;
11481;SDS011;5797;51.662;6.748;2022-09-29T06:27:09;15.87;;;7.10;;
11481;SDS011;5797;51.662;6.748;2022-09-29T06:29:57;13.93;;;6.90;;
11481;SDS011;5797;51.662;6.748;2022-09-29T06:32:44;15.97;;;7.10;;
11481;SDS011;5797;51.662;6.748;2022-09-29T06:35:33;16.30;;;6.10;;
11481;SDS011;5797;51.662;6.748;2022-09-29T06:38:38;11.70;;;5.97;;
11481;SDS011;5797;51.662;6.748;2022-09-29T06:41:26;14.67;;;6.87;;
11481;SDS011;5797;51.662;6.748;2022-09-29T06:44:14;13.90;;;7.10;;
11481;SDS011;5797;51.662;6.748;2022-09-29T06:47:02;10.27;;;6.70;;
11481;SDS011;5797;51.662;6.748;2022-09-29T06:49:49;10.03;;;6.53;;
11481;SDS011;5797;51.662;6.748;2022-09-29T06:52:38;11.33;;;6.90;;
11481;SDS011;5797;51.662;6.748;2022-09-29T06:55:26;10.63;;;5.67;;
11481;SDS011;5797;51.662;6.748;2022-09-29T06:58:14;12.77;;;7.30;;
11481;SDS011;5797;51.662;6.748;2022-09-29T07:01:02;11.47;;;6.63;;
11481;SDS011;5797;51.662;6.748;2022-09-29T07:03:51;9.67;;;6.27;;
11481;SDS011;5797;51.662;6.748;2022-09-29T07:06:38;10.97;;;7.00;;
11481;SDS011;5797;51.662;6.748;2022-09-29T07:09:44;14.27;;;6.97;;
11481;SDS011;5797;51.662;6.748;2022-09-29T07:12:31;10.93;;;7.23;;
11481;SDS011;5797;51.662;6.748;2022-09-29T07:15:18;11.53;;;7.53;;
11481;SDS011;5797;51.662;6.748;2022-09-29T07:18:06;16.33;;;7.87;;
11481;SDS011;5797;51.662;6.748;2022-09-29T07:20:52;13.57;;;8.00;;
11481;SDS011;5797;51.662;6.748;2022-09-29T07:23:42;18.97;;;8.40;;
11481;SDS011;5797;51.662;6.748;2022-09-29T07:26:31;14.67;;;8.73;;
11481;SDS011;5797;51.662;6.748;2022-09-29T07:29:19;13.10;;;8.50;;
11481;SDS011;5797;51.662;6.748;2022-09-29T07:32:07;12.87;;;8.43;;
11481;SDS011;5797;51.662;6.748;2022-09-29T07:35:09;13.33;;;9.23;;
11481;SDS011;5797;51.662;6.748;2022-09-29T07:37:56;20.20;;;10.47;;
11481;SDS011;5797;51.662;6.748;2022-09-29T07:40:43;21.40;;;12.27;;
11481;SDS011;5797;51.662;6.748;2022-09-29T07:43:32;25.70;;;12.47;;
11481;SDS011;5797;51.662;6.748;2022-09-29T07:46:19;20.70;;;12.17;;
11481;SDS011;5797;51.662;6.748;2022-09-29T07:49:07;24.63;;;12.63;;
11481;SDS011;5797;51.662;6.748;2022-09-29T07:51:54;22.97;;;13.23;;
11481;SDS011;5797;51.662;6.748;2022-09-29T07:54:41;24.57;;;14.30;;
11481;SDS011;5797;51.662;6.748;2022-09-29T07:57:28;27.40;;;14.03;;
11481;SDS011;5797;51.662;6.748;2022-09-29T08:00:17;24.43;;;14.83;;
11481;SDS011;5797;51.662;6.748;2022-09-29T08:03:05;27.27;;;13.63;;
11481;SDS011;5797;51.662;6.748;2022-09-29T08:05:53;26.53;;;13.97;;
11481;SDS011;5797;51.662;6.748;2022-09-29T08:08:42;25.13;;;14.40;;
11481;SDS011;5797;51.662;6.748;2022-09-29T08:11:44;27.37;;;14.57;;
11481;SDS011;5797;51.662;6.748;2022-09-29T08:14:31;22.10;;;14.93;;
11481;SDS011;5797;51.662;6.748;2022-09-29T08:17:20;23.53;;;14.50;;
11481;SDS011;5797;51.662;6.748;2022-09-29T08:20:07;22.83;;;14.13;;
11481;SDS011;5797;51.662;6.748;2022-09-29T08:22:55;29.07;;;15.80;;
11481;SDS011;5797;51.662;6.748;2022-09-29T08:25:43;23.80;;;14.00;;
11481;SDS011;5797;51.662;6.748;2022-09-29T08:28:42;27.37;;;15.60;;
11481;SDS011;5797;51.662;6.748;2022-09-29T08:31:30;31.63;;;14.87;;
11481;SDS011;5797;51.662;6.748;2022-09-29T08:34:20;25.67;;;15.23;;
11481;SDS011;5797;51.662;6.748;2022-09-29T08:37:07;27.57;;;15.47;;
11481;SDS011;5797;51.662;6.748;2022-09-29T08:39:54;25.33;;;15.23;;
11481;SDS011;5797;51.662;6.748;2022-09-29T08:42:45;23.53;;;14.90;;
11481;SDS011;5797;51.662;6.748;2022-09-29T08:45:38;39.97;;;15.87;;
11481;SDS011;5797;51.662;6.748;2022-09-29T08:48:43;28.83;;;14.90;;
11481;SDS011;5797;51.662;6.748;2022-09-29T08:51:43;26.67;;;15.47;;
11481;SDS011;5797;51.662;6.748;2022-09-29T08:54:33;23.83;;;14.53;;
11481;SDS011;5797;51.662;6.748;2022-09-29T08:57:40;25.37;;;14.73;;
11481;SDS011;5797;51.662;6.748;2022-09-29T09:00:29;25.33;;;14.90;;
11481;SDS011;5797;51.662;6.748;2022-09-29T09:03:29;24.47;;;14.53;;
11481;SDS011;5797;51.662;6.748;2022-09-29T09:06:25;20.40;;;14.33;;
11481;SDS011;5797;51.662;6.748;2022-09-29T09:09:23;26.23;;;15.60;;
11481;SDS011;5797;51.662;6.748;2022-09-29T09:12:26;25.57;;;14.80;;
11481;SDS011;5797;51.662;6.748;2022-09-29T09:15:36;23.07;;;15.53;;
11481;SDS011;5797;51.662;6.748;2022-09-29T09:18:30;29.80;;;15.43;;
11481;SDS011;5797;51.662;6.748;2022-09-29T09:21:40;24.53;;;13.97;;
11481;SDS011;5797;51.662;6.748;2022-09-29T09:24:31;25.50;;;14.33;;
11481;SDS011;5797;51.662;6.748;2022-09-29T09:27:25;24.17;;;14.63;;
11481;SDS011;5797;51.662;6.748;2022-09-29T09:30:14;25.70;;;14.87;;
11481;SDS011;5797;51.662;6.748;2022-09-29T09:33:03;23.80;;;13.70;;
11481;SDS011;5797;51.662;6.748;2022-09-29T09:35:56;19.33;;;13.63;;
11481;SDS011;5797;51.662;6.748;2022-09-29T09:38:49;29.17;;;14.00;;
11481;SDS011;5797;51.662;6.748;2022-09-29T09:41:43;23.17;;;13.57;;
11481;SDS011;5797;51.662;6.748;2022-09-29T09:44:33;26.40;;;13.13;;
11481;SDS011;5797;51.662;6.748;2022-09-29T09:47:24;20.63;;;13.30;;
11481;SDS011;5797;51.662;6.748;2022-09-29T09:50:13;23.40;;;13.10;;
11481;SDS011;5797;51.662;6.748;2022-09-29T09:53:04;22.00;;;12.47;;
11481;SDS011;5797;51.662;6.748;2022-09-29T09:56:02;19.10;;;12.67;;
11481;SDS011;5797;51.662;6.748;2022-09-29T09:58:58;14.97;;;10.60;;
11481;SDS011;5797;51.662;6.748;2022-09-29T10:01:53;18.43;;;10.77;;
11481;SDS011;5797;51.662;6.748;2022-09-29T10:04:40;13.33;;;9.67;;
11481;SDS011;5797;51.662;6.748;2022-09-29T10:07:28;13.83;;;10.37;;
11481;SDS011;5797;51.662;6.748;2022-09-29T10:10:17;16.50;;;9.30;;
11481;SDS011;5797;51.662;6.748;2022-09-29T10:13:07;12.23;;;9.13;;
11481;SDS011;5797;51.662;6.748;2022-09-29T10:15:58;19.37;;;11.03;;
11481;SDS011;5797;51.662;6.748;2022-09-29T10:19:00;13.50;;;9.53;;
11481;SDS011;5797;51.662;6.748;2022-09-29T10:21:47;12.93;;;9.33;;
11481;SDS011;5797;51.662;6.748;2022-09-29T10:24:34;15.27;;;9.13;;
11481;SDS011;5797;51.662;6.748;2022-09-29T10:27:22;10.23;;;8.07;;
11481;SDS011;5797;51.662;6.748;2022-09-29T10:30:18;12.50;;;8.97;;
11481;SDS011;5797;51.662;6.748;2022-09-29T10:33:10;14.70;;;10.37;;
11481;SDS011;5797;51.662;6.748;2022-09-29T10:36:03;15.53;;;9.80;;
11481;SDS011;5797;51.662;6.748;2022-09-29T10:38:53;12.63;;;8.00;;
11481;SDS011;5797;51.662;6.748;2022-09-29T10:41:48;11.43;;;8.33;;
11481;SDS011;5797;51.662;6.748;2022-09-29T10:44:39;10.17;;;7.53;;
11481;SDS011;5797;51.662;6.748;2022-09-29T10:47:26;12.60;;;7.97;;
11481;SDS011;5797;51.662;6.748;2022-09-29T10:50:16;11.97;;;7.47;;
11481;SDS011;5797;51.662;6.748;2022-09-29T10:53:18;8.70;;;6.03;;
11481;SDS011;5797;51.662;6.748;2022-09-29T10:56:09;8.83;;;6.33;;
11481;SDS011;5797;51.662;6.748;2022-09-29T10:59:01;10.60;;;6.80;;
11481;SDS011;5797;51.662;6.748;2022-09-29T11:01:52;8.97;;;7.10;;
11481;SDS011;5797;51.662;6.748;2022-09-29T11:04:41;9.97;;;7.27;;
11481;SDS011;5797;51.662;6.748;2022-09-29T11:07:33;9.13;;;7.30;;
11481;SDS011;5797;51.662;6.748;2022-09-29T11:10:26;8.90;;;6.87;;
11481;SDS011;5797;51.662;6.748;2022-09-29T11:13:34;6.97;;;6.27;;
11481;SDS011;5797;51.662;6.748;2022-09-29T11:16:25;9.37;;;6.00;;
11481;SDS011;5797;51.662;6.748;2022-09-29T11:19:13;6.40;;;5.30;;
11481;SDS011;5797;51.662;6.748;2022-09-29T11:22:12;8.93;;;5.57;;
11481;SDS011;5797;51.662;6.748;2022-09-29T11:25:13;6.10;;;5.40;;
11481;SDS011;5797;51.662;6.748;2022-09-29T11:31:20;6.73;;;5.23;;
11481;SDS011;5797;51.662;6.748;2022-09-29T11:34:30;6.20;;;4.70;;
11481;SDS011;5797;51.662;6.748;2022-09-29T11:37:32;4.60;;;4.00;;
11481;SDS011;5797;51.662;6.748;2022-09-29T11:40:28;7.03;;;3.93;;
11481;SDS011;5797;51.662;6.748;2022-09-29T11:43:24;5.63;;;4.07;;
11481;SDS011;5797;51.662;6.748;2022-09-29T11:46:33;7.90;;;4.00;;
11481;SDS011;5797;51.662;6.748;2022-09-29T11:49:33;4.93;;;4.20;;
11481;SDS011;5797;51.662;6.748;2022-09-29T11:52:33;7.63;;;4.93;;
11481;SDS011;5797;51.662;6.748;2022-09-29T11:55:31;8.07;;;4.87;;
11481;SDS011;5797;51.662;6.748;2022-09-29T11:58:26;5.63;;;4.10;;
11481;SDS011;5797;51.662;6.748;2022-09-29T12:01:28;7.93;;;3.90;;
11481;SDS011;5797;51.662;6.748;2022-09-29T12:04:22;6.17;;;3.47;;
11481;SDS011;5797;51.662;6.748;2022-09-29T12:07:18;5.50;;;3.53;;
11481;SDS011;5797;51.662;6.748;2022-09-29T12:10:16;3.67;;;3.20;;
11481;SDS011;5797;51.662;6.748;2022-09-29T12:13:14;3.57;;;3.07;;
11481;SDS011;5797;51.662;6.748;2022-09-29T12:16:07;3.43;;;3.10;;
11481;SDS011;5797;51.662;6.748;2022-09-29T12:18:55;6.10;;;3.63;;
11481;SDS011;5797;51.662;6.748;2022-09-29T12:21:46;7.13;;;3.73;;
11481;SDS011;5797;51.662;6.748;2022-09-29T12:24:35;4.03;;;3.40;;
11481;SDS011;5797;51.662;6.748;2022-09-29T12:27:24;5.67;;;3.03;;
11481;SDS011;5797;51.662;6.748;2022-09-29T12:30:17;4.60;;;3.27;;
11481;SDS011;5797;51.662;6.748;2022-09-29T12:33:12;6.40;;;3.23;;
11481;SDS011;5797;51.662;6.748;2022-09-29T12:36:07;33.37;;;5.87;;
11481;SDS011;5797;51.662;6.748;2022-09-29T12:39:24;32.97;;;5.63;;
11481;SDS011;5797;51.662;6.748;2022-09-29T12:45:30;12.23;;;4.30;;
11481;SDS011;5797;51.662;6.748;2022-09-29T12:48:24;8.93;;;3.20;;
11481;SDS011;5797;51.662;6.748;2022-09-29T12:51:16;7.60;;;3.20;;
11481;SDS011;5797;51.662;6.748;2022-09-29T12:54:08;10.03;;;3.43;;
11481;SDS011;5797;51.662;6.748;2022-09-29T12:57:02;5.07;;;3.53;;
11481;SDS011;5797;51.662;6.748;2022-09-29T12:59:51;3.63;;;3.20;;
11481;SDS011;5797;51.662;6.748;2022-09-29T13:02:50;6.10;;;3.67;;
11481;SDS011;5797;51.662;6.748;2022-09-29T13:05:55;9.43;;;4.50;;
11481;SDS011;5797;51.662;6.748;2022-09-29T13:09:01;4.30;;;3.30;;
11481;SDS011;5797;51.662;6.748;2022-09-29T13:12:02;4.00;;;3.57;;
11481;SDS011;5797;51.662;6.748;2022-09-29T13:15:06;4.50;;;3.07;;
11481;SDS011;5797;51.662;6.748;2022-09-29T13:18:16;3.57;;;2.77;;
11481;SDS011;5797;51.662;6.748;2022-09-29T13:21:14;4.27;;;2.60;;
11481;SDS011;5797;51.662;6.748;2022-09-29T13:24:09;8.27;;;2.87;;
11481;SDS011;5797;51.662;6.748;2022-09-29T13:27:23;4.23;;;2.27;;
11481;SDS011;5797;51.662;6.748;2022-09-29T13:30:15;4.53;;;2.07;;
11481;SDS011;5797;51.662;6.748;2022-09-29T13:33:07;2.77;;;2.20;;
11481;SDS011;5797;51.662;6.748;2022-09-29T13:35:57;2.87;;;2.13;;
11481;SDS011;5797;51.662;6.748;2022-09-29T13:38:51;2.20;;;2.00;;
11481;SDS011;5797;51.662;6.748;2022-09-29T13:41:40;6.80;;;2.40;;
11481;SDS011;5797;51.662;6.748;2022-09-29T13:44:28;5.63;;;2.47;;
11481;SDS011;5797;51.662;6.748;2022-09-29T13:47:30;7.43;;;3.10;;
11481;SDS011;5797;51.662;6.748;2022-09-29T13:53:35;5.70;;;2.60;;
11481;SDS011;5797;51.662;6.748;2022-09-29T13:56:23;2.63;;;1.90;;
11481;SDS011;5797;51.662;6.748;2022-09-29T13:59:12;3.57;;;2.47;;
11481;SDS011;5797;51.662;6.748;2022-09-29T14:02:00;5.07;;;2.70;;
11481;SDS011;5797;51.662;6.748;2022-09-29T14:04:50;4.50;;;2.50;;
11481;SDS011;5797;51.662;6.748;2022-09-29T14:07:40;3.53;;;2.37;;
11481;SDS011;5797;51.662;6.748;2022-09-29T14:10:36;4.07;;;2.20;;
11481;SDS011;5797;51.662;6.748;2022-09-29T14:13:26;3.40;;;2.10;;
11481;SDS011;5797;51.662;6.748;2022-09-29T14:19:42;6.27;;;2.37;;
11481;SDS011;5797;51.662;6.748;2022-09-29T14:22:53;3.97;;;2.53;;
11481;SDS011;5797;51.662;6.748;2022-09-29T14:25:48;5.17;;;3.90;;
11481;SDS011;5797;51.662;6.748;2022-09-29T14:28:38;3.87;;;2.10;;
11481;SDS011;5797;51.662;6.748;2022-09-29T14:31:31;3.43;;;2.43;;
11481;SDS011;5797;51.662;6.748;2022-09-29T14:34:20;3.13;;;2.33;;
11481;SDS011;5797;51.662;6.748;2022-09-29T14:37:09;3.00;;;2.20;;
11481;SDS011;5797;51.662;6.748;2022-09-29T14:40:05;2.57;;;2.27;;
11481;SDS011;5797;51.662;6.748;2022-09-29T14:46:48;4.07;;;2.73;;
11481;SDS011;5797;51.662;6.748;2022-09-29T14:50:13;3.20;;;2.90;;
11481;SDS011;5797;51.662;6.748;2022-09-29T14:53:41;3.47;;;2.83;;
11481;SDS011;5797;51.662;6.748;2022-09-29T14:56:49;4.23;;;2.80;;
11481;SDS011;5797;51.662;6.748;2022-09-29T14:59:50;4.03;;;2.73;;
11481;SDS011;5797;51.662;6.748;2022-09-29T15:02:43;5.00;;;2.67;;
11481;SDS011;5797;51.662;6.748;2022-09-29T15:05:45;4.17;;;3.07;;
11481;SDS011;5797;51.662;6.748;2022-09-29T15:08:41;6.00;;;2.53;;
11481;SDS011;5797;51.662;6.748;2022-09-29T15:11:29;3.00;;;2.53;;
11481;SDS011;5797;51.662;6.748;2022-09-29T15:14:22;2.90;;;2.17;;
11481;SDS011;5797;51.662;6.748;2022-09-29T15:17:14;4.63;;;2.20;;
11481;SDS011;5797;51.662;6.748;2022-09-29T15:20:05;4.50;;;2.40;;
11481;SDS011;5797;51.662;6.748;2022-09-29T15:23:21;4.07;;;2.40;;
11481;SDS011;5797;51.662;6.748;2022-09-29T15:26:18;2.40;;;2.20;;
11481;SDS011;5797;51.662;6.748;2022-09-29T15:29:06;4.90;;;2.23;;
11481;SDS011;5797;51.662;6.748;2022-09-29T15:31:56;3.37;;;1.83;;
11481;SDS011;5797;51.662;6.748;2022-09-29T15:34:50;3.07;;;1.70;;
11481;SDS011;5797;51.662;6.748;2022-09-29T15:41:02;2.73;;;1.63;;
11481;SDS011;5797;51.662;6.748;2022-09-29T15:43:52;4.23;;;1.80;;
11481;SDS011;5797;51.662;6.748;2022-09-29T15:49:56;2.53;;;1.90;;
11481;SDS011;5797;51.662;6.748;2022-09-29T15:52:43;4.07;;;2.20;;
11481;SDS011;5797;51.662;6.748;2022-09-29T15:55:30;3.63;;;2.23;;
11481;SDS011;5797;51.662;6.748;2022-09-29T15:58:33;1.60;;;1.50;;
11481;SDS011;5797;51.662;6.748;2022-09-29T16:01:21;2.60;;;1.70;;
11481;SDS011;5797;51.662;6.748;2022-09-29T16:04:08;3.73;;;1.90;;
11481;SDS011;5797;51.662;6.748;2022-09-29T16:06:57;3.47;;;1.50;;
11481;SDS011;5797;51.662;6.748;2022-09-29T16:09:44;1.70;;;1.60;;
11481;SDS011;5797;51.662;6.748;2022-09-29T16:12:33;5.13;;;3.77;;
11481;SDS011;5797;51.662;6.748;2022-09-29T16:15:25;4.97;;;2.47;;
11481;SDS011;5797;51.662;6.748;2022-09-29T16:18:15;3.53;;;2.47;;
11481;SDS011;5797;51.662;6.748;2022-09-29T16:21:06;3.57;;;2.10;;
11481;SDS011;5797;51.662;6.748;2022-09-29T16:24:02;3.47;;;1.80;;
11481;SDS011;5797;51.662;6.748;2022-09-29T16:26:52;2.13;;;1.80;;
11481;SDS011;5797;51.662;6.748;2022-09-29T16:38:31;2.43;;;1.80;;
11481;SDS011;5797;51.662;6.748;2022-09-29T16:41:25;3.07;;;1.87;;
11481;SDS011;5797;51.662;6.748;2022-09-29T16:44:22;3.23;;;1.90;;
11481;SDS011;5797;51.662;6.748;2022-09-29T16:47:12;2.10;;;1.77;;
11481;SDS011;5797;51.662;6.748;2022-09-29T16:50:02;2.13;;;1.63;;
11481;SDS011;5797;51.662;6.748;2022-09-29T16:52:54;3.53;;;1.70;;
11481;SDS011;5797;51.662;6.748;2022-09-29T16:55:42;2.20;;;2.00;;
11481;SDS011;5797;51.662;6.748;2022-09-29T16:58:43;3.93;;;1.90;;
11481;SDS011;5797;51.662;6.748;2022-09-29T17:01:30;1.73;;;1.63;;
11481;SDS011;5797;51.662;6.748;2022-09-29T17:04:17;2.50;;;1.77;;
11481;SDS011;5797;51.662;6.748;2022-09-29T17:07:03;4.80;;;2.00;;
11481;SDS011;5797;51.662;6.748;2022-09-29T17:09:51;3.40;;;1.90;;
11481;SDS011;5797;51.662;6.748;2022-09-29T17:12:40;6.87;;;1.80;;
11481;SDS011;5797;51.662;6.748;2022-09-29T17:15:28;4.33;;;1.70;;
11481;SDS011;5797;51.662;6.748;2022-09-29T17:18:16;3.17;;;2.00;;
11481;SDS011;5797;51.662;6.748;2022-09-29T17:21:03;2.90;;;1.87;;
11481;SDS011;5797;51.662;6.748;2022-09-29T17:23:51;4.30;;;2.10;;
11481;SDS011;5797;51.662;6.748;2022-09-29T17:26:39;3.60;;;2.10;;
11481;SDS011;5797;51.662;6.748;2022-09-29T17:29:46;5.57;;;2.40;;
11481;SDS011;5797;51.662;6.748;2022-09-29T17:32:35;4.50;;;2.73;;
11481;SDS011;5797;51.662;6.748;2022-09-29T17:35:27;3.87;;;2.43;;
11481;SDS011;5797;51.662;6.748;2022-09-29T17:38:15;5.97;;;3.20;;
11481;SDS011;5797;51.662;6.748;2022-09-29T17:41:04;5.00;;;2.67;;
11481;SDS011;5797;51.662;6.748;2022-09-29T17:43:52;6.07;;;2.60;;
11481;SDS011;5797;51.662;6.748;2022-09-29T17:46:39;3.90;;;2.57;;
11481;SDS011;5797;51.662;6.748;2022-09-29T17:49:27;3.73;;;2.27;;
11481;SDS011;5797;51.662;6.748;2022-09-29T17:52:14;2.43;;;2.17;;
11481;SDS011;5797;51.662;6.748;2022-09-29T17:55:04;2.93;;;2.10;;
11481;SDS011;5797;51.662;6.748;2022-09-29T17:57:56;2.57;;;2.20;;